$98.72 +0.12 (0.122%) NextEra Energy Inc - NYSE

Oct. 30, 2014 | 09:39 AM

Insider Transactions

Latest insider trade data based on US Insider Regulatory Filings which are subject to input errors by filers. Insiderslab.com may adjust certain filings for common filing errors on a reasonable effort basis.
Date Name Title Volume Trade Price Holding Change
8/11/2014DEWHURST MORAY PVice Chairman & CFO-10,000$95.47-3.10%
8/11/2014DEWHURST MORAY PVice Chairman & CFO10,000$36.953.20%
8/04/2014DEWHURST MORAY PVice Chairman & CFO15,000$36.954.80%
8/04/2014DEWHURST MORAY PVice Chairman & CFO-12,600$92.23-3.85%
8/04/2014DEWHURST MORAY PVice Chairman & CFO-2,400$93.49-0.76%
7/30/2014DEWHURST MORAY PVice Chairman & CFO5,000$36.951.60%
7/30/2014DEWHURST MORAY PVice Chairman & CFO-5,000$98.16-1.58%
6/03/2014Pimentel Armando JrN/A-4,779$97.17-7.77%
5/15/2014Caplan Deborah HEVP, HR & Corp Services-29$96.27-0.23%
3/17/2014YEAGER WILLIAM LEVP Eng, Const. & ISC-4,000$94.84-31.60%
3/04/2014ROBO JAMES LChairman, President & CEO21,080$36.9513.21%
3/03/2014ROBO JAMES LChairman, President & CEO-38,920$90.49-19.60%
3/03/2014ROBO JAMES LChairman, President & CEO38,920$36.9524.38%
2/27/2014Caplan Deborah HEVP, HR & Corp Services-2,253$90.45-15.44%
2/15/2014Sieving Charles EEVP & General Counsel-1,707$93.27-4.68%
2/15/2014Silagy Eric EN/A-939$93.27-3.94%
2/15/2014CUTLER PAUL ITreasurer-957$93.27-1.43%
2/15/2014FROGGATT CHRIS NVP, Controller and CAO-734$93.27-3.61%
2/15/2014Pimentel Armando JrN/A-2,730$93.27-4.25%
2/15/2014DEWHURST MORAY PVice Chairman & CFO-4,232$93.27-1.34%
2/15/2014Caplan Deborah HEVP, HR & Corp Services-564$93.27-3.72%
2/15/2014YEAGER WILLIAM LEVP Eng, Const. & ISC-831$93.27-6.16%
2/15/2014Nazar Manoochehr KEVP, Nuclear Div-3,909$93.27-2.68%
2/15/2014Kelliher Joseph TEVP, Federal Reg. Affairs-781$93.27-3.77%
2/15/2014ROBO JAMES LChairman, President & CEO-7,431$93.27-4.25%
2/14/2014Arechabala MiguelEVP, Power Generation Division-1,711$93.27-15.29%
2/14/2014FROGGATT CHRIS NVP, Controller and CAO-1,415$93.27-6.51%
2/14/2014Nazar Manoochehr KEVP, Nuclear Div-8,435$93.27-5.47%
2/14/2014CUTLER PAUL ITreasurer-1,828$93.27-2.65%
2/14/2014Silagy Eric EN/A-1,443$93.27-5.71%
2/14/2014Sieving Charles EEVP & General Counsel-3,421$93.27-8.58%
2/14/2014Pimentel Armando JrN/A-6,500$93.27-9.19%
2/14/2014DEWHURST MORAY PVice Chairman & CFO-9,411$93.27-2.89%
2/14/2014ROBO JAMES LChairman, President & CEO-14,614$93.27-7.71%
2/14/2014Caplan Deborah HEVP, HR & Corp Services-1,119$93.27-6.87%
2/14/2014YEAGER WILLIAM LEVP Eng, Const. & ISC-1,385$93.27-9.31%
2/14/2014Kelliher Joseph TEVP, Federal Reg. Affairs-1,612$93.27-7.22%
12/09/2013Pimentel Armando JrN/A-4,992$84.31-9.18%
11/11/2013Sieving Charles EEVP & General Counsel-12,000$86.83-31.13%
11/11/2013Sieving Charles EEVP & General Counsel12,346$50.9146.51%
11/11/2013Sieving Charles EEVP & General Counsel-12,346$86.81-31.75%
9/16/2013Kelliher Joseph TEVP, Federal Reg. Affairs-12,966$80.15-43.83%
9/16/2013Kelliher Joseph TEVP, Federal Reg. Affairs12,966$45.5778.03%
8/15/2013Sieving Charles EEVP & General Counsel-20,338$83.52-34.54%
8/15/2013FROGGATT CHRIS NVP, Controller and CAO-4,698$83.17-24.13%
8/15/2013Silagy Eric EN/A-101$83.00-0.59%
8/15/2013Sieving Charles EEVP & General Counsel20,338$45.5752.76%
6/14/2013Silagy Eric EN/A-4,000$79.18-18.81%
5/15/2013Caplan Deborah HEVP, HR & Corp Services-34$81.16-0.29%
5/14/2013Caplan Deborah HEVP, HR & Corp Services-5,371$79.92-31.69%
3/22/2013YEAGER WILLIAM LEVP Eng, Const. & ISC-3,500$75.64-30.04%
3/15/2013HAY LEWIS IIIExec Chairman-60,000$74.37-52.17%
3/11/2013RODRIGUEZ ANTONIOEVP-Power Generation-12,000$74.13-31.97%
3/08/2013Pimentel Armando JrN/A-7,500$73.97-12.12%
2/15/2013HAY LEWIS IIIExec Chairman-43,267$72.50-10.33%
2/15/2013ROBO JAMES LPresident & CEO-7,667$72.50-7.53%
2/15/2013ROBO JAMES LPresident & CEO-14,580$72.50-9.75%
2/15/2013DEWHURST MORAY PVice Chairman & CFO-9,572$72.50-3.39%
2/15/2013DEWHURST MORAY PVice Chairman & CFO-5,065$72.50-1.99%
2/15/2013Pimentel Armando JrN/A-6,075$72.50-8.94%
2/15/2013Pimentel Armando JrN/A-3,287$72.50-6.66%
2/15/2013Sieving Charles EEVP & General Counsel-2,409$72.50-5.88%
2/15/2013Sieving Charles EEVP & General Counsel-1,809$72.50-6.01%
2/15/2013Silagy Eric EN/A-1,414$72.50-6.24%
2/15/2013Silagy Eric EN/A-890$72.50-5.80%
2/15/2013HAY LEWIS IIIExec Chairman-23,638$72.50-7.35%
2/15/2013YEAGER WILLIAM LEVP Eng, Const. & ISC-1,382$72.50-10.60%
2/15/2013YEAGER WILLIAM LEVP Eng, Const. & ISC-942$72.50-13.67%
2/15/2013Francis Shaun JEVP, HR & Corp Services-1,440$72.50-6.50%
2/15/2013Nazar Manoochehr KEVP, Nuclear Div-5,033$72.50-4.40%
2/15/2013Nazar Manoochehr KEVP, Nuclear Div-8,156$72.50-5.99%
2/15/2013CUTLER PAUL ITreasurer-1,065$72.50-2.01%
2/15/2013CUTLER PAUL ITreasurer-1,824$72.50-2.96%
2/15/2013RODRIGUEZ ANTONIOEVP-Power Generation-2,408$72.50-9.11%
2/15/2013RODRIGUEZ ANTONIOEVP-Power Generation-5,064$72.50-11.89%
2/15/2013Francis Shaun JEVP, HR & Corp Services-655$72.50-4.36%
2/15/2013Kelliher Joseph TEVP, Federal Reg. Affairs-932$72.50-7.10%
2/15/2013Kelliher Joseph TEVP, Federal Reg. Affairs-1,614$72.50-8.85%
2/15/2013FROGGATT CHRIS NVP, Controller and CAO-835$72.50-5.86%
2/15/2013FROGGATT CHRIS NVP, Controller and CAO-1,430$72.50-6.84%
12/19/2012CUTLER PAUL ITreasurer12,000$28.3822.66%
12/19/2012CUTLER PAUL ITreasurer-12,000$70.51-18.47%
12/19/2012CUTLER PAUL ITreasurer10,000$32.4618.88%
12/19/2012CUTLER PAUL ITreasurer-10,000$70.36-15.88%
11/29/2012RODRIGUEZ ANTONIOEVP-Power Generation-17,000$68.01-39.15%
11/29/2012RODRIGUEZ ANTONIOEVP-Power Generation17,000$41.7664.35%
11/29/2012RODRIGUEZ ANTONIOEVP-Power Generation-20,000$68.02-43.09%
11/29/2012RODRIGUEZ ANTONIOEVP-Power Generation20,000$36.9575.70%
11/29/2012RODRIGUEZ ANTONIOEVP-Power Generation-40,000$68.02-60.22%
11/29/2012RODRIGUEZ ANTONIOEVP-Power Generation40,000$32.46151.41%
11/27/2012Silagy Eric EN/A-4,000$68.02-20.69%
11/02/2012ROBO JAMES LPresident & CEO33,768$32.4640.39%
11/01/2012ROBO JAMES LPresident & CEO-66,232$69.86-44.20%
11/01/2012ROBO JAMES LPresident & CEO66,232$32.4679.21%
10/31/2012HAY LEWIS IIIExec Chairman150,000$32.4646.62%
10/31/2012HAY LEWIS IIIExec Chairman-150,000$70.07-31.80%
10/26/2012SWANSON WILLIAM HDirector7,195$69.5399.86%
10/25/2012MCGRATH ROBERT LEVP Eng, Const. & Corp Svs-3,221$69.61-10.08%
10/19/2012FROGGATT CHRIS NVP, Controller and CAO-322$71.72-2.21%
10/14/2012Francis Shaun JEVP, Human Resources-525$69.37-3.38%
Data provided by Insiderslab.com. To read detailed Insider Trading Research Report for (NEE), click here.
  • Showing 1-100 of 246 items
  • 1
  • 2
  • 3
  • >>
Trading Center